sensor_id;sensor_type;location;lat;lon;timestamp;P1;durP1;ratioP1;P2;durP2;ratioP2
64868;SDS011;51349;52.424;10.840;2022-12-18T00:04:02;26.70;;;12.87;;
64868;SDS011;51349;52.424;10.840;2022-12-18T00:09:08;23.27;;;12.77;;
64868;SDS011;51349;52.424;10.840;2022-12-18T00:14:10;24.47;;;12.93;;
64868;SDS011;51349;52.424;10.840;2022-12-18T00:19:13;22.93;;;12.10;;
64868;SDS011;51349;52.424;10.840;2022-12-18T00:24:14;26.80;;;14.60;;
64868;SDS011;51349;52.424;10.840;2022-12-18T00:29:15;27.43;;;14.67;;
64868;SDS011;51349;52.424;10.840;2022-12-18T00:34:15;31.50;;;13.90;;
64868;SDS011;51349;52.424;10.840;2022-12-18T00:39:16;25.83;;;13.13;;
64868;SDS011;51349;52.424;10.840;2022-12-18T00:44:17;23.13;;;12.03;;
64868;SDS011;51349;52.424;10.840;2022-12-18T00:49:18;25.60;;;13.03;;
64868;SDS011;51349;52.424;10.840;2022-12-18T00:54:20;23.93;;;12.80;;
64868;SDS011;51349;52.424;10.840;2022-12-18T00:59:21;23.70;;;12.03;;
64868;SDS011;51349;52.424;10.840;2022-12-18T01:04:21;23.17;;;11.60;;
64868;SDS011;51349;52.424;10.840;2022-12-18T01:09:22;26.37;;;13.27;;
64868;SDS011;51349;52.424;10.840;2022-12-18T01:14:22;20.67;;;11.70;;
64868;SDS011;51349;52.424;10.840;2022-12-18T01:19:23;23.97;;;12.53;;
64868;SDS011;51349;52.424;10.840;2022-12-18T01:24:24;27.10;;;12.60;;
64868;SDS011;51349;52.424;10.840;2022-12-18T01:29:24;22.23;;;11.73;;
64868;SDS011;51349;52.424;10.840;2022-12-18T01:34:25;20.23;;;10.80;;
64868;SDS011;51349;52.424;10.840;2022-12-18T01:39:26;19.00;;;10.40;;
64868;SDS011;51349;52.424;10.840;2022-12-18T01:50:21;20.93;;;12.63;;
64868;SDS011;51349;52.424;10.840;2022-12-18T01:55:32;17.87;;;10.17;;
64868;SDS011;51349;52.424;10.840;2022-12-18T02:00:53;23.90;;;10.93;;
64868;SDS011;51349;52.424;10.840;2022-12-18T02:26:35;25.90;;;11.13;;
64868;SDS011;51349;52.424;10.840;2022-12-18T02:31:40;19.07;;;9.33;;
64868;SDS011;51349;52.424;10.840;2022-12-18T02:36:45;15.97;;;8.73;;
64868;SDS011;51349;52.424;10.840;2022-12-18T02:41:48;21.47;;;10.57;;
64868;SDS011;51349;52.424;10.840;2022-12-18T02:46:50;18.30;;;9.33;;
64868;SDS011;51349;52.424;10.840;2022-12-18T02:51:58;17.47;;;9.33;;
64868;SDS011;51349;52.424;10.840;2022-12-18T02:57:50;17.93;;;9.93;;
64868;SDS011;51349;52.424;10.840;2022-12-18T03:08:07;15.50;;;8.97;;
64868;SDS011;51349;52.424;10.840;2022-12-18T03:13:13;18.03;;;8.23;;
64868;SDS011;51349;52.424;10.840;2022-12-18T03:18:30;17.33;;;9.03;;
64868;SDS011;51349;52.424;10.840;2022-12-18T03:23:40;15.93;;;8.97;;
64868;SDS011;51349;52.424;10.840;2022-12-18T03:28:51;15.67;;;9.63;;
64868;SDS011;51349;52.424;10.840;2022-12-18T03:33:57;13.90;;;7.80;;
64868;SDS011;51349;52.424;10.840;2022-12-18T03:39:00;18.53;;;9.30;;
64868;SDS011;51349;52.424;10.840;2022-12-18T03:54:34;12.93;;;7.93;;
64868;SDS011;51349;52.424;10.840;2022-12-18T03:59:36;15.00;;;8.93;;
64868;SDS011;51349;52.424;10.840;2022-12-18T04:04:39;16.00;;;8.63;;
64868;SDS011;51349;52.424;10.840;2022-12-18T04:09:41;15.07;;;8.80;;
64868;SDS011;51349;52.424;10.840;2022-12-18T04:14:45;13.17;;;7.73;;
64868;SDS011;51349;52.424;10.840;2022-12-18T04:19:46;17.97;;;8.67;;
64868;SDS011;51349;52.424;10.840;2022-12-18T04:24:47;17.37;;;9.13;;
64868;SDS011;51349;52.424;10.840;2022-12-18T04:29:47;18.73;;;8.43;;
64868;SDS011;51349;52.424;10.840;2022-12-18T04:34:48;17.10;;;8.67;;
64868;SDS011;51349;52.424;10.840;2022-12-18T04:39:48;18.77;;;8.50;;
64868;SDS011;51349;52.424;10.840;2022-12-18T04:44:49;13.23;;;7.87;;
64868;SDS011;51349;52.424;10.840;2022-12-18T04:49:50;12.17;;;7.40;;
64868;SDS011;51349;52.424;10.840;2022-12-18T04:54:50;13.67;;;7.20;;
64868;SDS011;51349;52.424;10.840;2022-12-18T04:59:51;13.70;;;8.73;;
64868;SDS011;51349;52.424;10.840;2022-12-18T05:04:51;15.70;;;8.13;;
64868;SDS011;51349;52.424;10.840;2022-12-18T05:09:52;17.47;;;7.70;;
64868;SDS011;51349;52.424;10.840;2022-12-18T05:14:53;9.13;;;5.53;;
64868;SDS011;51349;52.424;10.840;2022-12-18T05:19:53;11.87;;;6.33;;
64868;SDS011;51349;52.424;10.840;2022-12-18T05:24:54;13.97;;;7.10;;
64868;SDS011;51349;52.424;10.840;2022-12-18T05:29:54;12.83;;;7.70;;
64868;SDS011;51349;52.424;10.840;2022-12-18T05:34:55;15.73;;;7.57;;
64868;SDS011;51349;52.424;10.840;2022-12-18T05:39:57;11.07;;;6.43;;
64868;SDS011;51349;52.424;10.840;2022-12-18T05:44:57;12.73;;;6.80;;
64868;SDS011;51349;52.424;10.840;2022-12-18T05:49:58;17.27;;;6.87;;
64868;SDS011;51349;52.424;10.840;2022-12-18T05:54:58;9.23;;;5.60;;
64868;SDS011;51349;52.424;10.840;2022-12-18T05:59:59;10.43;;;5.93;;
64868;SDS011;51349;52.424;10.840;2022-12-18T06:05:00;12.43;;;7.20;;
64868;SDS011;51349;52.424;10.840;2022-12-18T06:10:00;13.60;;;6.33;;
64868;SDS011;51349;52.424;10.840;2022-12-18T06:15:01;10.40;;;6.43;;
64868;SDS011;51349;52.424;10.840;2022-12-18T06:20:02;10.90;;;5.77;;
64868;SDS011;51349;52.424;10.840;2022-12-18T06:25:04;12.33;;;6.73;;
64868;SDS011;51349;52.424;10.840;2022-12-18T06:30:06;13.07;;;6.23;;
64868;SDS011;51349;52.424;10.840;2022-12-18T06:35:07;20.47;;;8.87;;
64868;SDS011;51349;52.424;10.840;2022-12-18T06:40:08;11.03;;;6.17;;
64868;SDS011;51349;52.424;10.840;2022-12-18T06:45:09;14.37;;;8.10;;
64868;SDS011;51349;52.424;10.840;2022-12-18T06:50:11;13.20;;;6.83;;
64868;SDS011;51349;52.424;10.840;2022-12-18T06:55:12;12.20;;;6.57;;
64868;SDS011;51349;52.424;10.840;2022-12-18T07:00:12;8.33;;;5.00;;
64868;SDS011;51349;52.424;10.840;2022-12-18T07:05:13;14.47;;;6.63;;
64868;SDS011;51349;52.424;10.840;2022-12-18T07:10:14;10.43;;;6.40;;
64868;SDS011;51349;52.424;10.840;2022-12-18T07:15:15;12.10;;;6.83;;
64868;SDS011;51349;52.424;10.840;2022-12-18T07:20:15;18.10;;;8.80;;
64868;SDS011;51349;52.424;10.840;2022-12-18T07:25:16;11.23;;;6.83;;
64868;SDS011;51349;52.424;10.840;2022-12-18T07:30:17;11.10;;;6.80;;
64868;SDS011;51349;52.424;10.840;2022-12-18T07:35:17;11.77;;;5.67;;
64868;SDS011;51349;52.424;10.840;2022-12-18T07:40:18;12.03;;;6.03;;
64868;SDS011;51349;52.424;10.840;2022-12-18T07:45:19;11.50;;;6.00;;
64868;SDS011;51349;52.424;10.840;2022-12-18T07:50:20;11.50;;;6.47;;
64868;SDS011;51349;52.424;10.840;2022-12-18T07:55:20;13.73;;;7.40;;
64868;SDS011;51349;52.424;10.840;2022-12-18T08:00:21;12.33;;;7.43;;
64868;SDS011;51349;52.424;10.840;2022-12-18T08:05:21;11.90;;;7.27;;
64868;SDS011;51349;52.424;10.840;2022-12-18T08:10:22;13.03;;;6.73;;
64868;SDS011;51349;52.424;10.840;2022-12-18T08:15:23;12.13;;;6.00;;
64868;SDS011;51349;52.424;10.840;2022-12-18T08:20:23;10.70;;;6.90;;
64868;SDS011;51349;52.424;10.840;2022-12-18T08:25:24;18.37;;;8.90;;
64868;SDS011;51349;52.424;10.840;2022-12-18T08:30:25;20.23;;;10.17;;
64868;SDS011;51349;52.424;10.840;2022-12-18T08:35:25;13.80;;;7.97;;
64868;SDS011;51349;52.424;10.840;2022-12-18T08:40:26;11.77;;;7.40;;
64868;SDS011;51349;52.424;10.840;2022-12-18T08:45:27;9.13;;;5.80;;
64868;SDS011;51349;52.424;10.840;2022-12-18T08:50:28;16.60;;;8.23;;
64868;SDS011;51349;52.424;10.840;2022-12-18T08:55:28;17.17;;;8.73;;
64868;SDS011;51349;52.424;10.840;2022-12-18T09:00:29;18.63;;;10.03;;
64868;SDS011;51349;52.424;10.840;2022-12-18T09:05:30;18.57;;;9.20;;
64868;SDS011;51349;52.424;10.840;2022-12-18T09:10:31;22.00;;;10.73;;
64868;SDS011;51349;52.424;10.840;2022-12-18T09:15:32;20.93;;;10.03;;
64868;SDS011;51349;52.424;10.840;2022-12-18T09:20:32;23.40;;;11.07;;
64868;SDS011;51349;52.424;10.840;2022-12-18T09:25:33;18.93;;;10.27;;
64868;SDS011;51349;52.424;10.840;2022-12-18T09:30:39;19.43;;;11.53;;
64868;SDS011;51349;52.424;10.840;2022-12-18T09:35:41;24.83;;;12.43;;
64868;SDS011;51349;52.424;10.840;2022-12-18T09:40:43;20.50;;;11.30;;
64868;SDS011;51349;52.424;10.840;2022-12-18T09:45:49;28.43;;;13.67;;
64868;SDS011;51349;52.424;10.840;2022-12-18T09:50:55;29.03;;;14.33;;
64868;SDS011;51349;52.424;10.840;2022-12-18T09:56:00;33.73;;;15.10;;
64868;SDS011;51349;52.424;10.840;2022-12-18T10:01:09;34.57;;;16.53;;
64868;SDS011;51349;52.424;10.840;2022-12-18T10:06:30;38.53;;;16.73;;
64868;SDS011;51349;52.424;10.840;2022-12-18T10:16:53;66.80;;;23.60;;
64868;SDS011;51349;52.424;10.840;2022-12-18T10:27:19;57.40;;;23.70;;
64868;SDS011;51349;52.424;10.840;2022-12-18T10:32:25;63.97;;;24.20;;
64868;SDS011;51349;52.424;10.840;2022-12-18T10:37:28;64.50;;;25.20;;
64868;SDS011;51349;52.424;10.840;2022-12-18T10:42:29;52.47;;;23.43;;
64868;SDS011;51349;52.424;10.840;2022-12-18T10:47:30;52.80;;;22.43;;
64868;SDS011;51349;52.424;10.840;2022-12-18T10:52:33;56.67;;;23.63;;
64868;SDS011;51349;52.424;10.840;2022-12-18T11:02:38;51.87;;;23.13;;
64868;SDS011;51349;52.424;10.840;2022-12-18T11:07:48;54.47;;;26.50;;
64868;SDS011;51349;52.424;10.840;2022-12-18T11:12:50;55.87;;;23.90;;
64868;SDS011;51349;52.424;10.840;2022-12-18T11:17:51;46.40;;;21.77;;
64868;SDS011;51349;52.424;10.840;2022-12-18T11:22:57;53.97;;;26.93;;
64868;SDS011;51349;52.424;10.840;2022-12-18T11:33:34;47.63;;;22.33;;
64868;SDS011;51349;52.424;10.840;2022-12-18T11:38:41;48.40;;;22.90;;
64868;SDS011;51349;52.424;10.840;2022-12-18T11:48:58;40.10;;;20.37;;
64868;SDS011;51349;52.424;10.840;2022-12-18T11:54:12;38.30;;;19.60;;
64868;SDS011;51349;52.424;10.840;2022-12-18T12:04:55;33.13;;;16.57;;
64868;SDS011;51349;52.424;10.840;2022-12-18T12:20:25;29.23;;;16.27;;
64868;SDS011;51349;52.424;10.840;2022-12-18T12:25:56;27.33;;;16.00;;
64868;SDS011;51349;52.424;10.840;2022-12-18T12:37:22;30.67;;;17.00;;
64868;SDS011;51349;52.424;10.840;2022-12-18T12:42:30;27.73;;;15.73;;
64868;SDS011;51349;52.424;10.840;2022-12-18T12:47:53;27.97;;;15.63;;
64868;SDS011;51349;52.424;10.840;2022-12-18T12:52:55;25.60;;;14.90;;
64868;SDS011;51349;52.424;10.840;2022-12-18T12:58:10;24.60;;;14.10;;
64868;SDS011;51349;52.424;10.840;2022-12-18T13:03:36;22.83;;;13.13;;
64868;SDS011;51349;52.424;10.840;2022-12-18T13:08:51;20.73;;;12.83;;
64868;SDS011;51349;52.424;10.840;2022-12-18T13:13:55;20.60;;;13.10;;
64868;SDS011;51349;52.424;10.840;2022-12-18T13:18:56;23.50;;;13.37;;
64868;SDS011;51349;52.424;10.840;2022-12-18T13:24:15;17.17;;;10.90;;
64868;SDS011;51349;52.424;10.840;2022-12-18T13:34:41;17.03;;;12.57;;
64868;SDS011;51349;52.424;10.840;2022-12-18T13:39:42;14.97;;;10.20;;
64868;SDS011;51349;52.424;10.840;2022-12-18T13:44:43;27.83;;;15.90;;
64868;SDS011;51349;52.424;10.840;2022-12-18T13:49:47;17.83;;;12.37;;
64868;SDS011;51349;52.424;10.840;2022-12-18T13:54:52;17.77;;;11.60;;
64868;SDS011;51349;52.424;10.840;2022-12-18T13:59:56;21.03;;;13.73;;
64868;SDS011;51349;52.424;10.840;2022-12-18T14:04:57;23.53;;;14.17;;
64868;SDS011;51349;52.424;10.840;2022-12-18T14:09:59;32.73;;;17.27;;
64868;SDS011;51349;52.424;10.840;2022-12-18T14:15:01;33.87;;;18.27;;
64868;SDS011;51349;52.424;10.840;2022-12-18T14:20:03;19.07;;;11.77;;
64868;SDS011;51349;52.424;10.840;2022-12-18T14:25:05;18.33;;;13.53;;
64868;SDS011;51349;52.424;10.840;2022-12-18T14:35:24;17.77;;;12.30;;
64868;SDS011;51349;52.424;10.840;2022-12-18T14:40:24;27.30;;;17.63;;
64868;SDS011;51349;52.424;10.840;2022-12-18T14:45:32;22.93;;;16.27;;
64868;SDS011;51349;52.424;10.840;2022-12-18T14:50:37;21.27;;;12.07;;
64868;SDS011;51349;52.424;10.840;2022-12-18T14:55:38;23.67;;;15.20;;
64868;SDS011;51349;52.424;10.840;2022-12-18T15:00:47;37.07;;;25.30;;
64868;SDS011;51349;52.424;10.840;2022-12-18T15:05:48;45.50;;;19.93;;
64868;SDS011;51349;52.424;10.840;2022-12-18T15:10:48;18.83;;;13.67;;
64868;SDS011;51349;52.424;10.840;2022-12-18T15:15:49;22.10;;;14.10;;
64868;SDS011;51349;52.424;10.840;2022-12-18T15:20:54;18.93;;;12.73;;
64868;SDS011;51349;52.424;10.840;2022-12-18T15:25:59;17.90;;;12.17;;
64868;SDS011;51349;52.424;10.840;2022-12-18T15:31:45;19.97;;;11.53;;
64868;SDS011;51349;52.424;10.840;2022-12-18T15:36:29;25.30;;;14.17;;
64868;SDS011;51349;52.424;10.840;2022-12-18T15:41:33;39.43;;;17.23;;
64868;SDS011;51349;52.424;10.840;2022-12-18T15:46:35;29.03;;;13.77;;
64868;SDS011;51349;52.424;10.840;2022-12-18T15:51:36;29.97;;;16.80;;
64868;SDS011;51349;52.424;10.840;2022-12-18T15:56:37;20.60;;;12.43;;
64868;SDS011;51349;52.424;10.840;2022-12-18T16:01:56;20.93;;;12.37;;
64868;SDS011;51349;52.424;10.840;2022-12-18T16:06:57;19.47;;;12.87;;
64868;SDS011;51349;52.424;10.840;2022-12-18T16:11:57;19.77;;;13.20;;
64868;SDS011;51349;52.424;10.840;2022-12-18T16:17:01;22.13;;;12.20;;
64868;SDS011;51349;52.424;10.840;2022-12-18T16:22:02;17.93;;;11.33;;
64868;SDS011;51349;52.424;10.840;2022-12-18T16:27:03;19.53;;;11.77;;
64868;SDS011;51349;52.424;10.840;2022-12-18T16:32:04;18.47;;;11.00;;
64868;SDS011;51349;52.424;10.840;2022-12-18T16:37:05;23.57;;;12.13;;
64868;SDS011;51349;52.424;10.840;2022-12-18T16:42:11;28.27;;;15.07;;
64868;SDS011;51349;52.424;10.840;2022-12-18T16:47:14;19.10;;;12.00;;
64868;SDS011;51349;52.424;10.840;2022-12-18T16:52:15;76.53;;;29.27;;
64868;SDS011;51349;52.424;10.840;2022-12-18T16:57:16;28.17;;;13.97;;
64868;SDS011;51349;52.424;10.840;2022-12-18T17:02:19;18.63;;;10.97;;
64868;SDS011;51349;52.424;10.840;2022-12-18T17:07:24;24.43;;;11.93;;
64868;SDS011;51349;52.424;10.840;2022-12-18T17:12:26;22.53;;;11.90;;
64868;SDS011;51349;52.424;10.840;2022-12-18T17:17:26;22.50;;;14.37;;
64868;SDS011;51349;52.424;10.840;2022-12-18T17:22:27;25.93;;;15.13;;
64868;SDS011;51349;52.424;10.840;2022-12-18T17:27:27;30.73;;;16.17;;
64868;SDS011;51349;52.424;10.840;2022-12-18T17:32:28;25.13;;;13.17;;
64868;SDS011;51349;52.424;10.840;2022-12-18T17:37:29;24.53;;;14.60;;
64868;SDS011;51349;52.424;10.840;2022-12-18T17:42:29;25.33;;;14.43;;
64868;SDS011;51349;52.424;10.840;2022-12-18T17:47:30;20.47;;;13.60;;
64868;SDS011;51349;52.424;10.840;2022-12-18T17:52:32;22.50;;;13.90;;
64868;SDS011;51349;52.424;10.840;2022-12-18T17:57:32;23.40;;;13.03;;
64868;SDS011;51349;52.424;10.840;2022-12-18T18:02:33;22.63;;;13.17;;
64868;SDS011;51349;52.424;10.840;2022-12-18T18:07:33;20.50;;;12.43;;
64868;SDS011;51349;52.424;10.840;2022-12-18T18:12:35;23.43;;;13.17;;
64868;SDS011;51349;52.424;10.840;2022-12-18T18:17:54;28.47;;;15.47;;
64868;SDS011;51349;52.424;10.840;2022-12-18T18:22:55;19.80;;;12.50;;
64868;SDS011;51349;52.424;10.840;2022-12-18T18:27:55;24.53;;;15.90;;
64868;SDS011;51349;52.424;10.840;2022-12-18T18:32:56;24.37;;;13.87;;
64868;SDS011;51349;52.424;10.840;2022-12-18T18:37:57;20.13;;;12.43;;
64868;SDS011;51349;52.424;10.840;2022-12-18T18:42:57;21.73;;;11.77;;
64868;SDS011;51349;52.424;10.840;2022-12-18T18:47:58;26.80;;;14.53;;
64868;SDS011;51349;52.424;10.840;2022-12-18T18:52:58;29.70;;;15.20;;
64868;SDS011;51349;52.424;10.840;2022-12-18T18:57:59;37.00;;;20.37;;
64868;SDS011;51349;52.424;10.840;2022-12-18T19:03:00;28.43;;;18.77;;
64868;SDS011;51349;52.424;10.840;2022-12-18T19:08:00;29.13;;;14.63;;
64868;SDS011;51349;52.424;10.840;2022-12-18T19:13:01;27.93;;;15.03;;
64868;SDS011;51349;52.424;10.840;2022-12-18T19:18:20;25.37;;;14.10;;
64868;SDS011;51349;52.424;10.840;2022-12-18T19:23:21;26.23;;;14.27;;
64868;SDS011;51349;52.424;10.840;2022-12-18T19:28:22;22.67;;;12.70;;
64868;SDS011;51349;52.424;10.840;2022-12-18T19:33:28;29.50;;;15.83;;
64868;SDS011;51349;52.424;10.840;2022-12-18T19:38:30;22.83;;;13.43;;
64868;SDS011;51349;52.424;10.840;2022-12-18T19:43:31;28.23;;;15.43;;
64868;SDS011;51349;52.424;10.840;2022-12-18T19:48:34;29.33;;;16.70;;
64868;SDS011;51349;52.424;10.840;2022-12-18T19:53:35;24.90;;;13.93;;
64868;SDS011;51349;52.424;10.840;2022-12-18T19:58:36;36.67;;;19.10;;
64868;SDS011;51349;52.424;10.840;2022-12-18T20:03:37;27.33;;;14.40;;
64868;SDS011;51349;52.424;10.840;2022-12-18T20:08:39;26.33;;;14.70;;
64868;SDS011;51349;52.424;10.840;2022-12-18T20:13:41;29.27;;;16.77;;
64868;SDS011;51349;52.424;10.840;2022-12-18T20:18:42;26.97;;;13.30;;
64868;SDS011;51349;52.424;10.840;2022-12-18T20:23:42;48.93;;;24.60;;
64868;SDS011;51349;52.424;10.840;2022-12-18T20:28:46;38.63;;;18.30;;
64868;SDS011;51349;52.424;10.840;2022-12-18T20:33:47;27.40;;;17.10;;
64868;SDS011;51349;52.424;10.840;2022-12-18T20:38:47;23.13;;;14.13;;
64868;SDS011;51349;52.424;10.840;2022-12-18T20:43:48;26.47;;;16.37;;
64868;SDS011;51349;52.424;10.840;2022-12-18T20:48:49;22.30;;;14.73;;
64868;SDS011;51349;52.424;10.840;2022-12-18T20:53:49;23.03;;;12.93;;
64868;SDS011;51349;52.424;10.840;2022-12-18T20:58:51;26.40;;;14.27;;
64868;SDS011;51349;52.424;10.840;2022-12-18T21:03:55;25.90;;;14.70;;
64868;SDS011;51349;52.424;10.840;2022-12-18T21:08:56;30.50;;;12.87;;
64868;SDS011;51349;52.424;10.840;2022-12-18T21:13:57;47.93;;;20.13;;
64868;SDS011;51349;52.424;10.840;2022-12-18T21:18:57;28.30;;;15.10;;
64868;SDS011;51349;52.424;10.840;2022-12-18T21:23:58;26.10;;;15.87;;
64868;SDS011;51349;52.424;10.840;2022-12-18T21:28:59;22.27;;;12.87;;
64868;SDS011;51349;52.424;10.840;2022-12-18T21:34:02;24.80;;;13.63;;
64868;SDS011;51349;52.424;10.840;2022-12-18T21:39:04;27.20;;;13.80;;
64868;SDS011;51349;52.424;10.840;2022-12-18T21:44:05;25.50;;;14.67;;
64868;SDS011;51349;52.424;10.840;2022-12-18T21:49:07;21.13;;;12.00;;
64868;SDS011;51349;52.424;10.840;2022-12-18T21:54:09;21.93;;;13.07;;
64868;SDS011;51349;52.424;10.840;2022-12-18T21:59:11;21.57;;;12.40;;
64868;SDS011;51349;52.424;10.840;2022-12-18T22:04:17;26.57;;;14.13;;
64868;SDS011;51349;52.424;10.840;2022-12-18T22:09:19;20.97;;;12.17;;
64868;SDS011;51349;52.424;10.840;2022-12-18T22:14:22;18.90;;;11.67;;
64868;SDS011;51349;52.424;10.840;2022-12-18T22:19:23;24.20;;;13.27;;
64868;SDS011;51349;52.424;10.840;2022-12-18T22:24:25;23.80;;;13.97;;
64868;SDS011;51349;52.424;10.840;2022-12-18T22:29:28;18.03;;;12.30;;
64868;SDS011;51349;52.424;10.840;2022-12-18T22:34:47;23.63;;;12.50;;
64868;SDS011;51349;52.424;10.840;2022-12-18T22:39:47;22.80;;;12.37;;
64868;SDS011;51349;52.424;10.840;2022-12-18T22:44:48;21.43;;;11.83;;
64868;SDS011;51349;52.424;10.840;2022-12-18T22:49:48;21.30;;;12.10;;
64868;SDS011;51349;52.424;10.840;2022-12-18T22:54:49;26.80;;;14.23;;
64868;SDS011;51349;52.424;10.840;2022-12-18T22:59:49;18.87;;;11.87;;
64868;SDS011;51349;52.424;10.840;2022-12-18T23:04:50;19.90;;;12.13;;
64868;SDS011;51349;52.424;10.840;2022-12-18T23:09:51;18.73;;;10.33;;
64868;SDS011;51349;52.424;10.840;2022-12-18T23:14:52;19.53;;;11.70;;
64868;SDS011;51349;52.424;10.840;2022-12-18T23:19:53;17.47;;;11.13;;
64868;SDS011;51349;52.424;10.840;2022-12-18T23:24:53;19.97;;;10.87;;
64868;SDS011;51349;52.424;10.840;2022-12-18T23:29:54;16.60;;;11.27;;
64868;SDS011;51349;52.424;10.840;2022-12-18T23:34:55;19.83;;;11.03;;
64868;SDS011;51349;52.424;10.840;2022-12-18T23:39:55;18.97;;;11.13;;
64868;SDS011;51349;52.424;10.840;2022-12-18T23:44:56;20.03;;;10.97;;
64868;SDS011;51349;52.424;10.840;2022-12-18T23:49:56;17.90;;;10.63;;
64868;SDS011;51349;52.424;10.840;2022-12-18T23:54:57;19.17;;;11.13;;
64868;SDS011;51349;52.424;10.840;2022-12-18T23:59:58;19.53;;;10.63;;
